createdAt,value
2023-01-03T00:01:59.763Z,4.95
2023-01-03T00:04:26.769Z,5.85
2023-01-03T00:06:53.679Z,4.35
2023-01-03T00:09:22.460Z,7.15
2023-01-03T00:12:08.571Z,14.63
2023-01-03T00:14:38.031Z,9.88
2023-01-03T00:17:05.765Z,6.80
2023-01-03T00:19:35.804Z,8.40
2023-01-03T00:22:02.446Z,4.32
2023-01-03T00:24:29.077Z,3.15
2023-01-03T00:26:55.711Z,4.80
2023-01-03T00:29:22.405Z,9.68
2023-01-03T00:31:49.030Z,8.73
2023-01-03T00:34:15.706Z,7.43
2023-01-03T00:36:42.552Z,7.57
2023-01-03T00:39:09.329Z,5.60
2023-01-03T00:41:36.187Z,8.52
2023-01-03T00:44:03.108Z,6.82
2023-01-03T00:46:29.936Z,4.25
2023-01-03T00:48:57.992Z,6.28
2023-01-03T00:51:26.473Z,4.30
2023-01-03T00:53:56.210Z,4.72
2023-01-03T00:56:25.365Z,6.18
2023-01-03T00:58:51.993Z,5.05
2023-01-03T01:01:23.438Z,2.85
2023-01-03T01:03:54.055Z,3.20
2023-01-03T01:06:22.139Z,3.65
2023-01-03T01:08:49.383Z,4.75
2023-01-03T01:11:16.237Z,3.47
2023-01-03T01:13:43.158Z,2.70
2023-01-03T01:16:15.484Z,4.80
2023-01-03T01:18:43.001Z,4.60
2023-01-03T01:21:11.705Z,3.40
2023-01-03T01:23:39.215Z,5.28
2023-01-03T01:26:06.495Z,5.32
2023-01-03T01:28:33.352Z,6.47
2023-01-03T01:31:03.585Z,4.72
2023-01-03T01:33:31.670Z,5.97
2023-01-03T01:35:58.430Z,8.05
2023-01-03T01:38:25.323Z,3.50
2023-01-03T01:40:51.928Z,4.40
2023-01-03T01:43:41.041Z,5.85
2023-01-03T01:46:29.088Z,5.63
2023-01-03T01:49:01.594Z,5.15
2023-01-03T01:51:31.167Z,7.53
2023-01-03T01:53:59.688Z,7.82
2023-01-03T01:56:38.704Z,9.07
2023-01-03T01:59:05.298Z,5.97
2023-01-03T02:01:32.246Z,6.47
2023-01-03T02:04:01.956Z,5.32
2023-01-03T02:06:29.634Z,8.38
2023-01-03T02:08:56.259Z,7.28
2023-01-03T02:11:43.344Z,13.20
2023-01-03T02:14:15.802Z,7.88
2023-01-03T02:17:10.816Z,5.45
2023-01-03T02:22:26.168Z,8.18
2023-01-03T02:25:10.322Z,6.38
2023-01-03T02:28:08.825Z,6.40
2023-01-03T02:30:36.929Z,9.98
2023-01-03T02:33:08.197Z,10.30
2023-01-03T02:35:50.189Z,10.85
2023-01-03T02:38:30.782Z,9.90
2023-01-03T02:41:08.720Z,9.40
2023-01-03T02:43:46.527Z,9.98
2023-01-03T02:46:20.912Z,11.85
2023-01-03T02:48:52.445Z,7.95
2023-01-03T02:51:33.659Z,7.22
2023-01-03T02:54:00.541Z,10.45
2023-01-03T02:56:34.522Z,8.88
2023-01-03T02:59:03.174Z,13.18
2023-01-03T03:01:30.004Z,10.40
2023-01-03T03:03:57.360Z,9.63
2023-01-03T03:06:34.179Z,9.27
2023-01-03T03:09:00.807Z,9.35
2023-01-03T03:11:48.019Z,9.15
2023-01-03T03:14:23.955Z,9.45
2023-01-03T03:16:51.818Z,9.95
2023-01-03T03:19:42.040Z,10.10
2023-01-03T03:22:37.397Z,9.10
2023-01-03T03:25:11.267Z,9.55
2023-01-03T03:27:57.802Z,14.70
2023-01-03T03:30:24.427Z,12.82
2023-01-03T03:32:51.942Z,13.25
2023-01-03T03:35:19.602Z,12.57
2023-01-03T03:37:46.322Z,11.82
2023-01-03T03:40:31.189Z,14.25
2023-01-03T03:43:25.935Z,8.90
2023-01-03T03:46:05.637Z,11.98
2023-01-03T03:48:57.621Z,8.90
2023-01-03T03:51:25.526Z,11.48
2023-01-03T03:53:52.196Z,11.02
2023-01-03T03:56:19.341Z,9.30
2023-01-03T03:58:51.484Z,17.17
2023-01-03T04:01:19.726Z,11.52
2023-01-03T04:03:46.748Z,14.18
2023-01-03T04:06:28.348Z,11.48
2023-01-03T04:08:54.944Z,12.38
2023-01-03T04:11:21.577Z,12.40
2023-01-03T04:13:48.257Z,15.38
2023-01-03T04:16:14.994Z,12.50
2023-01-03T04:18:41.707Z,9.68
2023-01-03T04:21:08.324Z,15.50
2023-01-03T04:23:34.944Z,11.70
2023-01-03T04:26:01.555Z,9.88
2023-01-03T04:28:28.215Z,11.05
2023-01-03T04:30:54.865Z,13.90
2023-01-03T04:33:21.493Z,11.38
2023-01-03T04:35:48.098Z,15.73
2023-01-03T04:38:14.719Z,11.85
2023-01-03T04:40:41.331Z,8.70
2023-01-03T04:43:27.374Z,11.32
2023-01-03T04:45:54.330Z,10.02
2023-01-03T04:48:21.009Z,9.95
2023-01-03T04:50:58.328Z,9.50
2023-01-03T04:53:25.919Z,12.07
2023-01-03T04:55:53.357Z,8.63
2023-01-03T04:58:20.281Z,8.07
2023-01-03T05:00:47.038Z,10.32
2023-01-03T05:03:13.735Z,10.80
2023-01-03T05:05:40.544Z,11.13
2023-01-03T05:08:08.069Z,12.20
2023-01-03T05:10:34.943Z,9.20
2023-01-03T05:13:01.629Z,9.20
2023-01-03T05:15:32.111Z,9.55
2023-01-03T05:17:58.934Z,9.65
2023-01-03T05:20:43.991Z,11.57
2023-01-03T05:23:33.075Z,8.73
2023-01-03T05:26:19.308Z,12.48
2023-01-03T05:28:47.664Z,8.27
2023-01-03T05:31:14.311Z,8.07
2023-01-03T05:33:41.180Z,9.48
2023-01-03T05:36:08.251Z,11.90
2023-01-03T05:38:35.013Z,10.45
2023-01-03T05:41:01.676Z,9.93
2023-01-03T05:43:28.397Z,11.18
2023-01-03T05:45:55.076Z,9.20
2023-01-03T05:48:21.805Z,7.28
2023-01-03T05:50:49.863Z,12.80
2023-01-03T05:53:16.921Z,9.23
2023-01-03T05:55:43.834Z,7.57
2023-01-03T05:58:11.135Z,8.10
2023-01-03T06:00:37.784Z,10.20
2023-01-03T06:03:04.560Z,12.77
2023-01-03T06:05:31.292Z,11.38
2023-01-03T06:08:00.965Z,11.55
2023-01-03T06:10:27.758Z,11.70
2023-01-03T06:12:55.088Z,13.18
2023-01-03T06:15:21.827Z,14.75
2023-01-03T06:18:02.470Z,10.85
2023-01-03T06:20:29.397Z,10.05
2023-01-03T06:22:56.132Z,10.02
2023-01-03T06:25:22.847Z,10.13
2023-01-03T06:27:49.501Z,10.07
2023-01-03T06:30:16.219Z,13.00
2023-01-03T06:32:43.634Z,12.65
2023-01-03T06:35:10.498Z,13.10
2023-01-03T06:37:37.245Z,15.23
2023-01-03T06:40:04.399Z,11.45
2023-01-03T06:42:44.964Z,14.68
2023-01-03T06:45:32.824Z,12.45
2023-01-03T06:48:22.464Z,15.65
2023-01-03T06:51:07.551Z,18.35
2023-01-03T06:53:38.915Z,11.98
2023-01-03T06:56:05.867Z,14.63
2023-01-03T06:58:32.728Z,13.95
2023-01-03T07:01:00.584Z,16.23
2023-01-03T07:03:27.245Z,18.38
2023-01-03T07:05:53.897Z,12.95
2023-01-03T07:08:20.570Z,18.95
2023-01-03T07:10:47.304Z,16.70
2023-01-03T07:13:32.452Z,11.63
2023-01-03T07:15:59.174Z,14.02
2023-01-03T07:18:26.371Z,13.05
2023-01-03T07:20:53.024Z,12.93
2023-01-03T07:23:19.680Z,12.70
2023-01-03T07:25:46.333Z,14.35
2023-01-03T07:28:13.570Z,13.85
2023-01-03T07:30:41.403Z,13.40
2023-01-03T07:33:09.462Z,23.73
2023-01-03T07:35:36.236Z,13.90
2023-01-03T07:38:03.114Z,12.27
2023-01-03T07:40:29.825Z,11.13
2023-01-03T07:43:14.961Z,9.40
2023-01-03T07:45:44.439Z,8.13
2023-01-03T07:48:11.314Z,16.42
2023-01-03T07:50:38.416Z,9.93
2023-01-03T07:53:06.209Z,13.38
2023-01-03T07:55:35.346Z,7.93
2023-01-03T07:58:02.435Z,8.13
2023-01-03T08:00:29.063Z,11.32
2023-01-03T08:02:56.045Z,8.27
2023-01-03T08:05:23.326Z,8.07
2023-01-03T08:07:50.928Z,11.40
2023-01-03T08:10:36.613Z,10.63
2023-01-03T08:13:18.995Z,11.45
2023-01-03T08:15:53.434Z,7.13
2023-01-03T08:18:22.344Z,8.88
2023-01-03T08:20:49.125Z,11.48
2023-01-03T08:23:15.729Z,11.30
2023-01-03T08:25:42.547Z,11.38
2023-01-03T08:28:09.730Z,17.20
2023-01-03T08:30:47.111Z,12.60
2023-01-03T08:33:16.869Z,11.93
2023-01-03T08:35:46.733Z,16.73
2023-01-03T08:38:16.591Z,25.77
2023-01-03T08:40:43.399Z,22.20
2023-01-03T08:43:10.270Z,20.92
2023-01-03T08:45:37.821Z,12.85
2023-01-03T08:48:04.603Z,14.02
2023-01-03T08:50:31.240Z,11.07
2023-01-03T08:52:58.244Z,11.63
2023-01-03T08:55:24.839Z,11.55
2023-01-03T08:57:51.466Z,11.52
2023-01-03T09:00:18.301Z,11.73
2023-01-03T09:02:45.204Z,21.85
2023-01-03T09:05:11.966Z,17.98
2023-01-03T09:07:38.586Z,11.90
2023-01-03T09:10:05.731Z,12.25
2023-01-03T09:12:32.336Z,12.02
2023-01-03T09:14:58.976Z,12.13
2023-01-03T09:17:25.627Z,10.75
2023-01-03T09:19:52.488Z,8.07
2023-01-03T09:22:19.091Z,11.02
2023-01-03T09:24:45.732Z,8.70
2023-01-03T09:27:12.386Z,9.57
2023-01-03T09:29:39.015Z,7.47
2023-01-03T09:32:05.928Z,9.48
2023-01-03T09:34:32.841Z,8.10
2023-01-03T09:36:59.652Z,9.95
2023-01-03T09:39:26.262Z,6.13
2023-01-03T09:42:11.456Z,6.25
2023-01-03T09:44:39.586Z,7.43
2023-01-03T09:47:06.292Z,8.18
2023-01-03T09:49:34.853Z,5.43
2023-01-03T09:52:19.731Z,8.05
2023-01-03T09:55:04.855Z,7.25
2023-01-03T09:57:50.948Z,9.80
2023-01-03T10:00:57.335Z,6.15
2023-01-03T10:03:51.132Z,9.75
2023-01-03T10:06:50.475Z,5.53
2023-01-03T10:09:20.183Z,4.32
2023-01-03T10:12:07.483Z,10.23
2023-01-03T10:15:04.942Z,5.95
2023-01-03T10:17:40.238Z,5.00
2023-01-03T10:20:33.400Z,5.82
2023-01-03T10:23:00.255Z,5.88
2023-01-03T10:25:28.366Z,8.02
2023-01-03T10:28:00.013Z,4.72
2023-01-03T10:30:44.825Z,5.22
2023-01-03T10:33:38.476Z,6.78
2023-01-03T10:36:05.858Z,6.57
2023-01-03T10:38:37.142Z,6.88
2023-01-03T10:41:29.727Z,8.93
2023-01-03T10:44:01.003Z,6.13
2023-01-03T10:46:28.259Z,10.00
2023-01-03T10:52:03.924Z,5.25
2023-01-03T10:54:59.775Z,5.40
2023-01-03T10:57:39.473Z,6.22
2023-01-03T11:00:30.403Z,7.38
2023-01-03T11:03:03.089Z,8.57
2023-01-03T11:05:29.854Z,11.50
2023-01-03T11:08:02.867Z,10.38
2023-01-03T11:10:48.247Z,8.30
2023-01-03T11:13:34.465Z,10.32
2023-01-03T11:16:02.324Z,10.57
2023-01-03T11:18:29.401Z,7.18
2023-01-03T11:21:10.000Z,6.72
2023-01-03T11:23:48.540Z,7.20
2023-01-03T11:26:27.127Z,7.63
2023-01-03T11:29:19.535Z,10.13
2023-01-03T11:32:10.331Z,5.78
2023-01-03T11:35:20.873Z,9.18
2023-01-03T11:38:08.306Z,6.07
2023-01-03T11:40:48.491Z,5.10
2023-01-03T11:43:22.060Z,9.30
2023-01-03T11:46:40.765Z,8.73
2023-01-03T11:49:21.319Z,5.05
2023-01-03T11:51:59.600Z,5.30
2023-01-03T11:54:53.153Z,5.70
2023-01-03T11:57:57.356Z,6.57
2023-01-03T12:00:34.744Z,9.00
2023-01-03T12:03:46.114Z,5.78
2023-01-03T12:06:29.101Z,9.57
2023-01-03T12:08:58.962Z,6.05
2023-01-03T12:11:46.076Z,6.05
2023-01-03T12:14:32.104Z,3.88
2023-01-03T12:17:06.268Z,6.20
2023-01-03T12:19:38.881Z,6.28
2023-01-03T12:22:12.668Z,9.15
2023-01-03T12:25:04.377Z,7.55
2023-01-03T12:27:44.537Z,7.28
2023-01-03T12:30:38.409Z,7.80
2023-01-03T12:33:30.926Z,8.93
2023-01-03T12:36:02.251Z,7.93
2023-01-03T12:38:37.834Z,5.57
2023-01-03T12:41:42.339Z,8.80
2023-01-03T12:44:21.085Z,4.78
2023-01-03T12:47:02.070Z,5.85
2023-01-03T12:49:34.986Z,5.35
2023-01-03T12:52:01.654Z,5.45
2023-01-03T12:54:47.049Z,7.28
2023-01-03T12:57:19.039Z,7.10
2023-01-03T13:00:22.388Z,7.28
2023-01-03T13:02:50.170Z,16.63
2023-01-03T13:05:19.089Z,4.18
2023-01-03T13:08:03.355Z,7.63
2023-01-03T13:10:31.723Z,7.63
2023-01-03T13:12:58.345Z,6.28
2023-01-03T13:15:35.768Z,8.02
2023-01-03T13:18:36.041Z,9.70
2023-01-03T13:21:24.170Z,7.45
2023-01-03T13:23:58.167Z,9.60
2023-01-03T13:26:26.154Z,10.35
2023-01-03T13:28:53.435Z,6.55
2023-01-03T13:31:22.902Z,9.27
2023-01-03T13:33:53.469Z,6.88
2023-01-03T13:36:20.356Z,8.05
2023-01-03T13:38:47.180Z,8.98
2023-01-03T13:41:35.133Z,10.55
2023-01-03T13:44:28.059Z,5.82
2023-01-03T13:46:54.712Z,8.25
2023-01-03T13:49:26.237Z,10.75
2023-01-03T13:51:54.127Z,4.30
2023-01-03T13:54:20.715Z,8.02
2023-01-03T13:56:50.284Z,8.70
2023-01-03T13:59:36.191Z,5.00
2023-01-03T14:02:29.449Z,7.82
2023-01-03T14:05:15.180Z,7.38
2023-01-03T14:08:18.914Z,10.43
2023-01-03T14:10:54.070Z,7.95
2023-01-03T14:13:45.855Z,16.80
2023-01-03T14:16:27.941Z,10.35
2023-01-03T14:19:03.658Z,10.57
2023-01-03T14:21:45.519Z,17.23
2023-01-03T14:24:20.684Z,10.30
2023-01-03T14:26:47.425Z,10.57
2023-01-03T14:29:23.022Z,10.13
2023-01-03T14:31:53.039Z,8.45
2023-01-03T14:34:34.172Z,9.43
2023-01-03T14:37:02.150Z,12.52
2023-01-03T14:42:00.952Z,5.80
2023-01-03T14:44:29.366Z,9.55
2023-01-03T14:46:57.635Z,12.32
2023-01-03T14:49:31.721Z,7.60
2023-01-03T14:52:05.505Z,6.00
2023-01-03T14:54:32.140Z,7.88
2023-01-03T14:56:59.996Z,9.30
2023-01-03T14:59:26.858Z,5.68
2023-01-03T15:01:53.672Z,6.03
2023-01-03T15:04:20.850Z,5.90
2023-01-03T15:07:05.151Z,8.25
2023-01-03T15:09:36.379Z,6.00
2023-01-03T15:12:04.337Z,12.38
2023-01-03T15:14:35.739Z,9.02
2023-01-03T15:17:11.454Z,7.57
2023-01-03T15:19:39.685Z,9.02
2023-01-03T15:22:16.027Z,11.55
2023-01-03T15:24:44.367Z,8.52
2023-01-03T15:27:38.113Z,8.23
2023-01-03T15:30:15.091Z,6.45
2023-01-03T15:33:19.782Z,7.00
2023-01-03T15:35:47.332Z,11.68
2023-01-03T15:38:36.361Z,9.57
2023-01-03T15:42:00.125Z,9.27
2023-01-03T15:44:36.273Z,7.38
2023-01-03T15:47:05.354Z,10.13
2023-01-03T15:49:33.098Z,13.38
2023-01-03T15:51:59.947Z,10.23
2023-01-03T15:54:27.194Z,10.68
2023-01-03T15:57:04.337Z,9.98
2023-01-03T15:59:35.687Z,14.27
2023-01-03T16:02:13.219Z,8.85
2023-01-03T16:04:39.995Z,9.82
2023-01-03T16:07:06.644Z,8.68
2023-01-03T16:09:33.449Z,19.13
2023-01-03T16:12:00.289Z,13.38
2023-01-03T16:14:32.922Z,18.13
2023-01-03T16:16:59.695Z,12.30
2023-01-03T16:19:26.984Z,13.98
2023-01-03T16:22:32.828Z,14.57
2023-01-03T16:24:42.038Z,12.95
2023-01-03T16:27:16.433Z,16.27
2023-01-03T16:29:43.056Z,22.65
2023-01-03T16:32:26.130Z,18.35
2023-01-03T16:34:53.008Z,13.68
2023-01-03T16:37:19.649Z,12.93
2023-01-03T16:39:48.563Z,12.73
2023-01-03T16:42:15.639Z,9.18
2023-01-03T16:44:45.106Z,15.43
2023-01-03T16:47:16.958Z,16.23
2023-01-03T16:49:44.436Z,13.93
2023-01-03T16:52:14.665Z,15.50
2023-01-03T16:54:41.751Z,16.42
2023-01-03T16:57:15.617Z,13.65
2023-01-03T16:59:42.249Z,19.63
2023-01-03T17:02:09.145Z,15.80
2023-01-03T17:04:35.935Z,17.52
2023-01-03T17:07:02.834Z,20.95
2023-01-03T17:09:31.687Z,25.83
2023-01-03T17:11:58.547Z,19.25
2023-01-03T17:14:26.153Z,18.27
2023-01-03T17:16:52.885Z,14.70
2023-01-03T17:22:20.010Z,19.08
2023-01-03T17:24:46.683Z,16.30
2023-01-03T17:27:18.179Z,13.48
2023-01-03T17:29:45.180Z,16.27
2023-01-03T17:32:17.457Z,16.90
2023-01-03T17:34:44.353Z,13.95
2023-01-03T17:37:21.117Z,14.15
2023-01-03T17:39:53.076Z,19.02
2023-01-03T17:42:19.942Z,15.95
2023-01-03T17:45:07.055Z,14.57
2023-01-03T17:47:57.881Z,20.02
2023-01-03T17:50:24.670Z,17.58
2023-01-03T17:52:55.672Z,17.17
2023-01-03T17:55:28.256Z,20.10
2023-01-03T17:57:58.492Z,18.83
2023-01-03T18:00:26.574Z,14.35
2023-01-03T18:02:54.651Z,17.75
2023-01-03T18:05:27.335Z,18.42
2023-01-03T18:07:59.221Z,17.50
2023-01-03T18:10:41.851Z,15.82
2023-01-03T18:13:32.755Z,16.48
2023-01-03T18:15:59.482Z,15.95
2023-01-03T18:18:35.848Z,19.15
2023-01-03T18:21:02.530Z,17.40
2023-01-03T18:23:31.108Z,17.05
2023-01-03T18:25:59.920Z,17.65
2023-01-03T18:28:27.104Z,15.25
2023-01-03T18:30:54.478Z,22.42
2023-01-03T18:33:21.376Z,20.42
2023-01-03T18:35:48.246Z,17.77
2023-01-03T18:38:32.012Z,19.35
2023-01-03T18:41:04.569Z,22.67
2023-01-03T18:43:32.276Z,25.75
2023-01-03T18:45:58.988Z,17.70
2023-01-03T18:48:25.710Z,20.20
2023-01-03T18:53:55.809Z,20.02
2023-01-03T18:56:29.384Z,18.35
2023-01-03T18:59:02.183Z,26.95
2023-01-03T19:01:30.029Z,19.98
2023-01-03T19:03:56.815Z,19.35
2023-01-03T19:06:31.454Z,22.85
2023-01-03T19:09:05.261Z,21.27
2023-01-03T19:11:36.647Z,24.95
2023-01-03T19:14:03.975Z,21.27
2023-01-03T19:16:32.792Z,21.33
2023-01-03T19:18:59.566Z,19.35
2023-01-03T19:21:30.618Z,21.05
2023-01-03T19:24:20.758Z,20.45
2023-01-03T19:26:52.984Z,20.35
2023-01-03T19:29:24.173Z,28.98
2023-01-03T19:31:51.960Z,26.17
2023-01-03T19:34:20.562Z,24.48
2023-01-03T19:36:47.410Z,27.67
2023-01-03T19:39:14.120Z,24.65
2023-01-03T19:42:10.081Z,23.25
2023-01-03T19:44:36.756Z,17.65
2023-01-03T19:47:04.555Z,20.10
2023-01-03T19:49:31.167Z,21.52
2023-01-03T19:51:57.872Z,17.90
2023-01-03T19:54:24.702Z,20.42
2023-01-03T19:56:54.699Z,29.70
2023-01-03T19:59:35.736Z,19.42
2023-01-03T20:04:50.666Z,17.73
2023-01-03T20:07:17.408Z,23.58
2023-01-03T20:09:44.014Z,23.40
2023-01-03T20:12:13.127Z,19.20
2023-01-03T20:14:41.576Z,21.40
2023-01-03T20:17:25.874Z,23.73
2023-01-03T20:19:52.888Z,23.25
2023-01-03T20:23:02.050Z,19.05
2023-01-03T20:25:13.825Z,19.85
2023-01-03T20:27:44.761Z,23.10
2023-01-03T20:30:18.492Z,23.70
2023-01-03T20:32:45.214Z,23.98
2023-01-03T20:35:58.001Z,26.50
2023-01-03T20:38:01.042Z,17.67
2023-01-03T20:40:27.638Z,18.13
2023-01-03T20:42:54.640Z,29.67
2023-01-03T20:45:21.480Z,22.75
2023-01-03T20:47:53.048Z,22.38
2023-01-03T20:50:21.330Z,18.10
2023-01-03T20:52:48.086Z,22.27
2023-01-03T20:55:15.852Z,23.27
2023-01-03T20:57:42.963Z,21.35
2023-01-03T21:00:22.232Z,23.23
2023-01-03T21:02:49.513Z,23.77
2023-01-03T21:05:16.417Z,21.40
2023-01-03T21:08:01.592Z,21.52
2023-01-03T21:10:30.268Z,20.40
2023-01-03T21:12:56.908Z,28.20
2023-01-03T21:15:23.592Z,27.02
2023-01-03T21:17:51.172Z,22.45
2023-01-03T21:20:19.824Z,23.20
2023-01-03T21:22:46.553Z,25.35
2023-01-03T21:25:20.493Z,23.23
2023-01-03T21:27:47.353Z,23.73
2023-01-03T21:30:14.861Z,22.45
2023-01-03T21:32:41.518Z,22.52
2023-01-03T21:35:14.621Z,19.40
2023-01-03T21:37:41.793Z,19.05
2023-01-03T21:40:15.726Z,22.02
2023-01-03T21:43:04.168Z,20.88
2023-01-03T21:45:40.984Z,23.63
2023-01-03T21:48:17.915Z,21.98
2023-01-03T21:50:49.763Z,28.73
2023-01-03T21:53:21.044Z,19.05
2023-01-03T21:55:48.393Z,21.70
2023-01-03T21:58:15.842Z,17.48
2023-01-03T22:00:42.637Z,18.48
2023-01-03T22:03:31.766Z,20.77
2023-01-03T22:06:12.031Z,16.02
2023-01-03T22:08:39.417Z,20.20
2023-01-03T22:11:06.976Z,16.33
2023-01-03T22:13:33.631Z,19.58
2023-01-03T22:16:04.964Z,19.13
2023-01-03T22:18:31.839Z,21.67
2023-01-03T22:21:04.597Z,18.08
2023-01-03T22:23:31.346Z,16.92
2023-01-03T22:26:05.526Z,17.55
2023-01-03T22:28:36.034Z,18.40
2023-01-03T22:31:12.668Z,13.52
2023-01-03T22:33:39.484Z,15.18
2023-01-03T22:36:06.491Z,23.70
2023-01-03T22:38:33.416Z,20.40
2023-01-03T22:41:00.451Z,18.50
2023-01-03T22:43:27.632Z,15.98
2023-01-03T22:45:54.557Z,16.75
2023-01-03T22:48:21.531Z,17.55
2023-01-03T22:50:48.139Z,15.00
2023-01-03T22:53:14.955Z,15.43
2023-01-03T22:55:42.352Z,21.77
2023-01-03T22:58:10.840Z,16.15
2023-01-03T23:00:37.694Z,13.23
2023-01-03T23:03:04.620Z,19.00
2023-01-03T23:05:31.327Z,17.25
2023-01-03T23:07:58.169Z,15.90
2023-01-03T23:10:25.025Z,12.73
2023-01-03T23:13:00.987Z,15.55
2023-01-03T23:15:31.592Z,16.50
2023-01-03T23:17:58.635Z,14.75
2023-01-03T23:20:30.585Z,15.30
2023-01-03T23:22:59.959Z,19.58
2023-01-03T23:25:26.650Z,14.90
2023-01-03T23:27:53.297Z,16.35
2023-01-03T23:30:20.043Z,15.10
2023-01-03T23:32:47.027Z,16.15
2023-01-03T23:35:13.722Z,14.88
2023-01-03T23:37:40.519Z,11.27
2023-01-03T23:40:08.072Z,12.25
2023-01-03T23:42:34.700Z,14.45
2023-01-03T23:45:01.319Z,19.35
2023-01-03T23:47:27.956Z,15.32
2023-01-03T23:49:54.775Z,18.52
2023-01-03T23:52:21.431Z,17.92
2023-01-03T23:54:48.089Z,22.27
2023-01-03T23:57:14.736Z,17.92
2023-01-03T23:59:41.659Z,15.93
